Terminal Aerodrome Forecast
Issued by NWS Mt. Holly, NJ

Home | Current Version | Previous Version | Text Only | Print | Product List | Glossary On
Versions: 1 2 3 4 5 6 7 8 9 10 11 12 13 14 15 16 17 18 19
910
FTUS41 KPHI 280635 AAA
TAFTTN
TAF AMD
KTTN 280635Z 2807/2906 10008KT 1 1/2SM +TSRA BR VCSH SCT002 BKN024
      OVC035CB
     FM280715 08005KT 1SM BR VCSH OVC002
     FM281400 08005KT 3SM BR VCSH OVC004
     FM282000 05005KT 5SM -RA BR OVC007
     FM290000 02005KT 2SM BR VCSH OVC007
     FM290500 01006KT P6SM BKN025=

USA.gov is the U.S. government's official web portal to all federal, state and local government web resources and services.